createdAt,value
2019-06-20T00:02:51.649Z,20.8
2019-06-20T00:13:00.153Z,20.8
2019-06-20T00:23:04.463Z,20.6
2019-06-20T00:33:07.927Z,20.3
2019-06-20T00:43:17.247Z,20.5
2019-06-20T00:53:21.907Z,20.4
2019-06-20T01:03:25.319Z,19.9
2019-06-20T01:13:33.374Z,19.6
2019-06-20T01:23:37.978Z,19.8
2019-06-20T01:33:41.408Z,19.6
2019-06-20T01:43:50.371Z,19.4
2019-06-20T01:53:54.678Z,19.6
2019-06-20T02:03:58.135Z,19.5
2019-06-20T02:14:06.987Z,19.7
2019-06-20T02:24:11.261Z,19.5
2019-06-20T02:34:14.718Z,19.5
2019-06-20T02:44:29.648Z,19.2
2019-06-20T02:54:34.559Z,19.3
2019-06-20T03:04:38.005Z,19.2
2019-06-20T03:14:45.225Z,19
2019-06-20T03:24:49.418Z,18.9
2019-06-20T03:34:52.880Z,19
2019-06-20T03:45:01.911Z,18.8
2019-06-20T03:55:06.195Z,18.8
2019-06-20T04:05:09.676Z,18.9
2019-06-20T04:15:18.844Z,18.8
2019-06-20T04:25:23.231Z,19
2019-06-20T04:35:26.844Z,19
2019-06-20T04:45:34.822Z,19.5
2019-06-20T04:55:39.284Z,19.3
2019-06-20T05:05:42.900Z,20
2019-06-20T05:15:52.384Z,20
2019-06-20T05:25:56.945Z,19.3
2019-06-20T05:36:00.382Z,19.4
2019-06-20T05:46:09.197Z,19.4
2019-06-20T05:56:14.774Z,19.4
2019-06-20T06:06:18.277Z,19.3
2019-06-20T06:16:25.996Z,19.3
2019-06-20T06:26:31.853Z,19.4
2019-06-20T06:36:35.351Z,19.3
2019-06-20T06:46:44.160Z,19.2
2019-06-20T06:57:03.185Z,19.3
2019-06-20T07:07:06.787Z,19.3
2019-06-20T07:17:10.256Z,19.3
2019-06-20T07:27:13.768Z,19.3
2019-06-20T07:37:17.269Z,19.3
2019-06-20T07:47:20.701Z,19.5
2019-06-20T07:57:24.185Z,19.7
2019-06-20T08:07:27.620Z,19.6
2019-06-20T08:17:35.049Z,19.5
2019-06-20T08:27:39.348Z,19.4
2019-06-20T08:37:42.801Z,19.4
2019-06-20T08:47:46.356Z,19.3
2019-06-20T08:57:49.807Z,19.3
2019-06-20T09:07:54.726Z,19.3
2019-06-20T09:18:04.525Z,19.4
2019-06-20T09:28:08.126Z,19.5
2019-06-20T09:38:11.552Z,19.4
2019-06-20T09:48:14.966Z,19.4
2019-06-20T09:58:18.451Z,19.3
2019-06-20T10:08:21.948Z,19.3
2019-06-20T10:18:25.430Z,19.7
2019-06-20T10:28:28.924Z,19.9
2019-06-20T10:38:32.377Z,19.9
2019-06-20T10:48:35.809Z,19.9
2019-06-20T10:58:41.448Z,20
2019-06-20T11:08:47.909Z,20.1
2019-06-20T11:18:52.838Z,20.3
2019-06-20T11:28:56.300Z,20.1
2019-06-20T11:38:59.808Z,20
2019-06-20T11:49:03.330Z,19.9
2019-06-20T11:59:06.774Z,19.8
2019-06-20T12:09:10.181Z,19.9
2019-06-20T12:19:13.623Z,20
2019-06-20T12:29:17.118Z,20
2019-06-20T12:39:20.536Z,20.1
2019-06-20T12:49:24.125Z,20
2019-06-20T12:59:27.569Z,20.2
2019-06-20T13:09:31.016Z,20.9
2019-06-20T13:19:34.508Z,21.3
2019-06-20T13:29:39.073Z,22
2019-06-20T13:39:45.622Z,22.3
2019-06-20T13:49:50.579Z,22.2
2019-06-20T13:59:54.516Z,22.2
2019-06-20T14:09:58.026Z,22.2
2019-06-20T14:20:01.554Z,22.3
2019-06-20T14:30:05.659Z,22.4
2019-06-20T14:40:09.122Z,22.6
2019-06-20T14:50:12.612Z,22.6
2019-06-20T15:00:16.083Z,22.6
2019-06-20T15:10:19.573Z,22.3
2019-06-20T15:20:23.226Z,22.1
2019-06-20T15:30:26.682Z,21.8
2019-06-20T15:40:30.230Z,21.8
2019-06-20T15:50:33.710Z,21.7
2019-06-20T16:00:37.175Z,21.5
2019-06-20T16:10:40.694Z,21.4
2019-06-20T16:20:44.172Z,21.4
2019-06-20T16:30:47.703Z,21.2
2019-06-20T16:40:51.148Z,21
2019-06-20T16:50:54.602Z,20.6
2019-06-20T17:00:58.124Z,20.7
2019-06-20T17:11:01.596Z,20.9
2019-06-20T17:21:05.113Z,20.7
2019-06-20T17:31:08.645Z,20.6
2019-06-20T17:41:12.115Z,20.5
2019-06-20T17:51:15.591Z,20.3
2019-06-20T18:01:19.082Z,20.1
2019-06-20T18:11:22.569Z,20
2019-06-20T18:21:26.042Z,19.9
2019-06-20T18:31:29.482Z,19.9
2019-06-20T18:41:33.000Z,19.8
2019-06-20T18:51:36.573Z,19.6
2019-06-20T19:01:40.085Z,19.4
2019-06-20T19:11:43.553Z,19.3
2019-06-20T19:21:47.002Z,19.1
2019-06-20T19:31:50.459Z,19.1
2019-06-20T19:41:53.894Z,18.9
2019-06-20T19:51:57.357Z,19
2019-06-20T20:02:00.831Z,18.8
2019-06-20T20:12:04.281Z,18.7
2019-06-20T20:22:07.747Z,18.7
2019-06-20T20:32:11.197Z,18.6
2019-06-20T20:42:17.582Z,18.8
2019-06-20T20:52:21.406Z,18.8
2019-06-20T21:02:24.895Z,18.9
2019-06-20T21:12:28.378Z,18.8
2019-06-20T21:22:31.851Z,18.6
2019-06-20T21:32:35.265Z,18.6
2019-06-20T21:42:38.747Z,18.7
2019-06-20T21:52:42.173Z,18.5
2019-06-20T22:02:45.629Z,18.3
2019-06-20T22:12:49.085Z,18.3
2019-06-20T22:22:52.510Z,18.2
2019-06-20T22:32:56.003Z,18.2
2019-06-20T22:42:59.499Z,18.3
2019-06-20T22:53:02.941Z,18.1
2019-06-20T23:03:06.523Z,18.1
2019-06-20T23:13:10.068Z,18.1
2019-06-20T23:23:13.507Z,18
2019-06-20T23:33:16.983Z,17.9
2019-06-20T23:43:20.469Z,17.7
2019-06-20T23:53:23.942Z,17.7
